sensor_id;sensor_type;location;lat;lon;timestamp;pressure;altitude;pressure_sealevel;temperature;humidity
79077;BME280;68477;42.698;23.342;2023-06-14T00:01:32;95105.63;;;16.14;90.03
79077;BME280;68477;42.698;23.342;2023-06-14T00:04:00;95105.22;;;16.11;90.18
79077;BME280;68477;42.698;23.342;2023-06-14T00:06:28;95105.03;;;16.12;89.88
79077;BME280;68477;42.698;23.342;2023-06-14T00:08:53;95112.00;;;16.00;90.71
79077;BME280;68477;42.698;23.342;2023-06-14T00:11:19;95105.03;;;16.06;91.30
79077;BME280;68477;42.698;23.342;2023-06-14T00:13:45;95109.34;;;16.00;91.64
79077;BME280;68477;42.698;23.342;2023-06-14T00:16:11;95103.34;;;16.18;90.29
79077;BME280;68477;42.698;23.342;2023-06-14T00:18:38;95097.44;;;16.22;89.79
79077;BME280;68477;42.698;23.342;2023-06-14T00:21:04;95096.84;;;16.14;89.71
79077;BME280;68477;42.698;23.342;2023-06-14T00:23:30;95097.22;;;16.24;90.00
79077;BME280;68477;42.698;23.342;2023-06-14T00:25:55;95094.41;;;16.12;89.26
79077;BME280;68477;42.698;23.342;2023-06-14T00:28:21;95092.34;;;16.14;89.98
79077;BME280;68477;42.698;23.342;2023-06-14T00:30:47;95092.13;;;16.22;90.15
79077;BME280;68477;42.698;23.342;2023-06-14T00:33:12;95095.97;;;16.26;89.53
79077;BME280;68477;42.698;23.342;2023-06-14T00:35:38;95089.03;;;16.25;89.63
79077;BME280;68477;42.698;23.342;2023-06-14T00:38:03;95090.94;;;16.12;90.19
79077;BME280;68477;42.698;23.342;2023-06-14T00:40:29;95090.53;;;16.08;90.63
79077;BME280;68477;42.698;23.342;2023-06-14T00:42:54;95086.22;;;16.14;90.22
79077;BME280;68477;42.698;23.342;2023-06-14T00:45:20;95087.63;;;16.16;89.68
79077;BME280;68477;42.698;23.342;2023-06-14T00:47:46;95080.47;;;16.23;89.62
79077;BME280;68477;42.698;23.342;2023-06-14T00:50:12;95077.25;;;16.15;90.92
79077;BME280;68477;42.698;23.342;2023-06-14T00:52:39;95077.88;;;16.10;89.89
79077;BME280;68477;42.698;23.342;2023-06-14T00:55:05;95082.97;;;16.12;89.67
79077;BME280;68477;42.698;23.342;2023-06-14T00:57:31;95087.63;;;16.16;89.58
79077;BME280;68477;42.698;23.342;2023-06-14T00:59:57;95078.47;;;16.12;89.64
79077;BME280;68477;42.698;23.342;2023-06-14T01:02:22;95078.06;;;16.15;89.04
79077;BME280;68477;42.698;23.342;2023-06-14T01:04:49;95077.25;;;16.15;89.49
79077;BME280;68477;42.698;23.342;2023-06-14T01:15:09;95080.97;;;16.00;91.13
79077;BME280;68477;42.698;23.342;2023-06-14T01:17:36;95076.34;;;15.83;91.66
79077;BME280;68477;42.698;23.342;2023-06-14T01:20:12;95075.56;;;15.76;91.35
79077;BME280;68477;42.698;23.342;2023-06-14T01:22:53;95080.88;;;15.76;91.40
79077;BME280;68477;42.698;23.342;2023-06-14T01:25:19;95077.16;;;15.90;90.80
79077;BME280;68477;42.698;23.342;2023-06-14T01:27:52;95079.75;;;16.03;90.16
79077;BME280;68477;42.698;23.342;2023-06-14T01:30:19;95077.31;;;16.01;90.69
79077;BME280;68477;42.698;23.342;2023-06-14T01:32:45;95075.31;;;15.90;91.26
79077;BME280;68477;42.698;23.342;2023-06-14T01:35:13;95073.69;;;15.89;90.92
79077;BME280;68477;42.698;23.342;2023-06-14T01:37:40;95078.19;;;15.82;90.62
79077;BME280;68477;42.698;23.342;2023-06-14T01:40:09;95080.66;;;15.77;91.19
79077;BME280;68477;42.698;23.342;2023-06-14T01:42:38;95077.94;;;15.90;90.10
79077;BME280;68477;42.698;23.342;2023-06-14T01:45:04;95078.34;;;15.94;89.75
79077;BME280;68477;42.698;23.342;2023-06-14T01:47:31;95076.06;;;16.04;89.65
79077;BME280;68477;42.698;23.342;2023-06-14T01:49:57;95075.47;;;15.95;89.79
79077;BME280;68477;42.698;23.342;2023-06-14T01:52:23;95076.91;;;15.98;89.16
79077;BME280;68477;42.698;23.342;2023-06-14T01:54:50;95072.59;;;16.04;89.28
79077;BME280;68477;42.698;23.342;2023-06-14T01:57:15;95082.78;;;16.07;89.71
79077;BME280;68477;42.698;23.342;2023-06-14T01:59:41;95081.59;;;16.02;88.09
79077;BME280;68477;42.698;23.342;2023-06-14T02:02:07;95084.22;;;16.02;89.34
79077;BME280;68477;42.698;23.342;2023-06-14T02:04:33;95087.25;;;16.13;88.33
79077;BME280;68477;42.698;23.342;2023-06-14T02:06:58;95093.81;;;16.10;88.41
79077;BME280;68477;42.698;23.342;2023-06-14T02:09:24;95095.22;;;16.06;89.04
79077;BME280;68477;42.698;23.342;2023-06-14T02:11:49;95096.25;;;16.05;89.32
79077;BME280;68477;42.698;23.342;2023-06-14T02:14:15;95099.94;;;16.11;88.69
79077;BME280;68477;42.698;23.342;2023-06-14T02:16:42;95100.75;;;16.11;88.79
79077;BME280;68477;42.698;23.342;2023-06-14T02:19:14;95101.56;;;16.12;88.61
79077;BME280;68477;42.698;23.342;2023-06-14T02:21:40;95099.72;;;16.12;88.69
79077;BME280;68477;42.698;23.342;2023-06-14T02:24:06;95102.97;;;16.08;89.76
79077;BME280;68477;42.698;23.342;2023-06-14T02:26:31;95107.47;;;16.14;87.93
79077;BME280;68477;42.698;23.342;2023-06-14T02:28:58;95111.13;;;16.13;88.66
79077;BME280;68477;42.698;23.342;2023-06-14T02:31:23;95107.25;;;16.15;88.63
79077;BME280;68477;42.698;23.342;2023-06-14T02:33:49;95106.25;;;16.10;88.68
79077;BME280;68477;42.698;23.342;2023-06-14T02:36:15;95114.66;;;16.00;88.59
79077;BME280;68477;42.698;23.342;2023-06-14T02:38:40;95108.13;;;15.96;89.05
79077;BME280;68477;42.698;23.342;2023-06-14T02:41:06;95112.38;;;16.04;89.31
79077;BME280;68477;42.698;23.342;2023-06-14T02:43:31;95106.91;;;15.92;89.74
79077;BME280;68477;42.698;23.342;2023-06-14T02:45:57;95109.34;;;15.93;88.64
79077;BME280;68477;42.698;23.342;2023-06-14T02:48:22;95106.97;;;15.79;89.18
79077;BME280;68477;42.698;23.342;2023-06-14T02:50:48;95100.88;;;15.65;89.27
79077;BME280;68477;42.698;23.342;2023-06-14T02:53:13;95106.78;;;15.60;89.44
79077;BME280;68477;42.698;23.342;2023-06-14T02:55:38;95099.22;;;15.51;89.81
79077;BME280;68477;42.698;23.342;2023-06-14T02:58:05;95111.47;;;15.38;90.73
79077;BME280;68477;42.698;23.342;2023-06-14T03:00:30;95111.06;;;15.61;90.09
79077;BME280;68477;42.698;23.342;2023-06-14T03:02:56;95120.44;;;15.57;90.08
79077;BME280;68477;42.698;23.342;2023-06-14T03:05:21;95118.63;;;15.64;89.39
79077;BME280;68477;42.698;23.342;2023-06-14T03:07:48;95121.88;;;15.60;89.15
79077;BME280;68477;42.698;23.342;2023-06-14T03:10:13;95110.66;;;15.64;89.10
79077;BME280;68477;42.698;23.342;2023-06-14T03:12:39;95115.75;;;15.66;88.67
79077;BME280;68477;42.698;23.342;2023-06-14T03:15:05;95124.31;;;15.61;88.98
79077;BME280;68477;42.698;23.342;2023-06-14T03:17:31;95121.03;;;15.59;89.09
79077;BME280;68477;42.698;23.342;2023-06-14T03:19:59;95114.72;;;15.47;89.29
79077;BME280;68477;42.698;23.342;2023-06-14T03:22:25;95127.78;;;15.55;89.31
79077;BME280;68477;42.698;23.342;2023-06-14T03:24:51;95132.69;;;15.52;89.48
79077;BME280;68477;42.698;23.342;2023-06-14T03:27:17;95128.97;;;15.59;89.44
79077;BME280;68477;42.698;23.342;2023-06-14T03:29:43;95127.16;;;15.47;90.04
79077;BME280;68477;42.698;23.342;2023-06-14T03:32:09;95133.09;;;15.35;91.28
79077;BME280;68477;42.698;23.342;2023-06-14T03:34:35;95126.34;;;15.53;90.34
79077;BME280;68477;42.698;23.342;2023-06-14T03:37:00;95130.81;;;15.59;90.51
79077;BME280;68477;42.698;23.342;2023-06-14T03:39:26;95126.97;;;15.61;90.56
79077;BME280;68477;42.698;23.342;2023-06-14T03:41:52;95133.72;;;15.64;91.41
79077;BME280;68477;42.698;23.342;2023-06-14T03:44:18;95135.75;;;15.75;90.77
79077;BME280;68477;42.698;23.342;2023-06-14T03:46:44;95140.00;;;15.83;90.83
79077;BME280;68477;42.698;23.342;2023-06-14T03:49:11;95134.09;;;15.81;89.31
79077;BME280;68477;42.698;23.342;2023-06-14T03:51:36;95135.31;;;15.58;90.15
79077;BME280;68477;42.698;23.342;2023-06-14T03:54:02;95131.84;;;15.78;89.88
79077;BME280;68477;42.698;23.342;2023-06-14T03:56:27;95133.25;;;15.87;89.87
79077;BME280;68477;42.698;23.342;2023-06-14T03:58:53;95142.59;;;15.96;89.18
79077;BME280;68477;42.698;23.342;2023-06-14T04:01:18;95139.94;;;16.02;88.80
79077;BME280;68477;42.698;23.342;2023-06-14T04:03:44;95142.00;;;16.00;89.26
79077;BME280;68477;42.698;23.342;2023-06-14T04:06:09;95143.81;;;16.07;87.76
79077;BME280;68477;42.698;23.342;2023-06-14T04:08:35;95136.84;;;16.12;87.32
79077;BME280;68477;42.698;23.342;2023-06-14T04:11:01;95140.75;;;16.03;86.96
79077;BME280;68477;42.698;23.342;2023-06-14T04:13:26;95139.53;;;16.06;88.05
79077;BME280;68477;42.698;23.342;2023-06-14T04:15:52;95147.25;;;16.20;87.59
79077;BME280;68477;42.698;23.342;2023-06-14T04:18:17;95139.28;;;16.20;87.98
79077;BME280;68477;42.698;23.342;2023-06-14T04:20:44;95136.66;;;16.14;87.75
79077;BME280;68477;42.698;23.342;2023-06-14T04:23:14;95136.09;;;15.98;87.04
79077;BME280;68477;42.698;23.342;2023-06-14T04:25:40;95137.94;;;15.98;87.47
79077;BME280;68477;42.698;23.342;2023-06-14T04:28:13;95152.19;;;16.10;88.08
79077;BME280;68477;42.698;23.342;2023-06-14T04:30:40;95143.78;;;16.13;88.23
79077;BME280;68477;42.698;23.342;2023-06-14T04:33:06;95144.00;;;16.05;88.13
79077;BME280;68477;42.698;23.342;2023-06-14T04:35:32;95148.72;;;16.10;88.19
79077;BME280;68477;42.698;23.342;2023-06-14T04:37:58;95147.06;;;16.15;86.03
79077;BME280;68477;42.698;23.342;2023-06-14T04:40:24;95137.63;;;16.26;84.84
79077;BME280;68477;42.698;23.342;2023-06-14T04:42:50;95139.19;;;16.40;85.41
79077;BME280;68477;42.698;23.342;2023-06-14T04:45:16;95140.88;;;16.35;85.54
79077;BME280;68477;42.698;23.342;2023-06-14T04:47:42;95148.81;;;16.35;85.12
79077;BME280;68477;42.698;23.342;2023-06-14T04:50:09;95144.34;;;16.35;85.75
79077;BME280;68477;42.698;23.342;2023-06-14T04:52:38;95146.09;;;16.48;84.39
79077;BME280;68477;42.698;23.342;2023-06-14T04:55:04;95144.06;;;16.50;84.85
79077;BME280;68477;42.698;23.342;2023-06-14T04:57:31;95153.25;;;16.54;83.70
79077;BME280;68477;42.698;23.342;2023-06-14T04:59:56;95161.59;;;16.57;84.28
79077;BME280;68477;42.698;23.342;2023-06-14T05:02:23;95154.03;;;16.68;83.09
79077;BME280;68477;42.698;23.342;2023-06-14T05:04:49;95162.94;;;16.80;83.86
79077;BME280;68477;42.698;23.342;2023-06-14T05:07:15;95165.13;;;16.90;84.34
79077;BME280;68477;42.698;23.342;2023-06-14T05:09:41;95171.47;;;16.88;84.96
79077;BME280;68477;42.698;23.342;2023-06-14T05:12:06;95170.72;;;16.75;85.58
79077;BME280;68477;42.698;23.342;2023-06-14T05:14:35;95166.44;;;16.67;85.59
79077;BME280;68477;42.698;23.342;2023-06-14T05:17:01;95163.00;;;16.67;85.35
79077;BME280;68477;42.698;23.342;2023-06-14T05:19:27;95168.47;;;16.78;85.47
79077;BME280;68477;42.698;23.342;2023-06-14T05:21:53;95168.72;;;16.70;84.29
79077;BME280;68477;42.698;23.342;2023-06-14T05:24:19;95174.03;;;16.70;86.22
79077;BME280;68477;42.698;23.342;2023-06-14T05:26:48;95171.38;;;16.70;84.50
79077;BME280;68477;42.698;23.342;2023-06-14T05:29:14;95191.13;;;16.87;82.71
79077;BME280;68477;42.698;23.342;2023-06-14T05:31:39;95191.03;;;17.01;82.18
79077;BME280;68477;42.698;23.342;2023-06-14T05:34:05;95190.81;;;17.02;83.68
79077;BME280;68477;42.698;23.342;2023-06-14T05:36:30;95191.28;;;16.93;83.66
79077;BME280;68477;42.698;23.342;2023-06-14T05:38:56;95198.22;;;16.94;82.63
79077;BME280;68477;42.698;23.342;2023-06-14T05:41:28;95193.25;;;17.04;82.50
79077;BME280;68477;42.698;23.342;2023-06-14T05:43:56;95181.94;;;17.15;81.89
79077;BME280;68477;42.698;23.342;2023-06-14T05:46:22;95183.72;;;17.21;80.64
79077;BME280;68477;42.698;23.342;2023-06-14T05:48:50;95188.16;;;17.34;81.22
79077;BME280;68477;42.698;23.342;2023-06-14T05:51:16;95197.34;;;17.31;82.34
79077;BME280;68477;42.698;23.342;2023-06-14T05:53:44;95198.97;;;17.32;81.80
79077;BME280;68477;42.698;23.342;2023-06-14T05:56:09;95195.69;;;17.37;82.61
79077;BME280;68477;42.698;23.342;2023-06-14T05:58:34;95193.38;;;17.47;81.62
79077;BME280;68477;42.698;23.342;2023-06-14T06:01:00;95192.84;;;17.32;81.94
79077;BME280;68477;42.698;23.342;2023-06-14T06:03:26;95198.59;;;17.60;80.12
79077;BME280;68477;42.698;23.342;2023-06-14T06:05:54;95194.13;;;17.54;81.72
79077;BME280;68477;42.698;23.342;2023-06-14T06:08:20;95201.75;;;17.75;80.74
79077;BME280;68477;42.698;23.342;2023-06-14T06:10:46;95196.13;;;17.90;80.59
79077;BME280;68477;42.698;23.342;2023-06-14T06:13:11;95196.00;;;18.03;79.63
79077;BME280;68477;42.698;23.342;2023-06-14T06:15:37;95201.19;;;18.17;79.14
79077;BME280;68477;42.698;23.342;2023-06-14T06:18:02;95198.97;;;18.14;78.49
79077;BME280;68477;42.698;23.342;2023-06-14T06:20:29;95205.50;;;18.11;78.16
79077;BME280;68477;42.698;23.342;2023-06-14T06:23:00;95206.06;;;18.20;77.99
79077;BME280;68477;42.698;23.342;2023-06-14T06:25:26;95213.31;;;18.13;77.87
79077;BME280;68477;42.698;23.342;2023-06-14T06:27:53;95213.31;;;17.88;79.11
79077;BME280;68477;42.698;23.342;2023-06-14T06:30:19;95208.31;;;17.98;79.45
79077;BME280;68477;42.698;23.342;2023-06-14T06:32:45;95212.63;;;18.17;78.48
79077;BME280;68477;42.698;23.342;2023-06-14T06:35:11;95214.63;;;18.03;79.53
79077;BME280;68477;42.698;23.342;2023-06-14T06:37:38;95214.84;;;18.20;78.64
79077;BME280;68477;42.698;23.342;2023-06-14T06:40:03;95217.81;;;18.30;79.68
79077;BME280;68477;42.698;23.342;2023-06-14T06:42:31;95211.59;;;18.18;79.07
79077;BME280;68477;42.698;23.342;2023-06-14T06:44:57;95213.81;;;18.21;77.81
79077;BME280;68477;42.698;23.342;2023-06-14T06:47:23;95211.28;;;18.08;78.45
79077;BME280;68477;42.698;23.342;2023-06-14T06:49:48;95215.16;;;18.12;78.57
79077;BME280;68477;42.698;23.342;2023-06-14T06:52:13;95213.22;;;18.19;79.55
79077;BME280;68477;42.698;23.342;2023-06-14T06:54:39;95217.22;;;18.28;78.82
79077;BME280;68477;42.698;23.342;2023-06-14T06:57:05;95219.84;;;18.35;79.19
79077;BME280;68477;42.698;23.342;2023-06-14T06:59:33;95219.75;;;18.42;78.63
79077;BME280;68477;42.698;23.342;2023-06-14T07:01:58;95215.41;;;18.47;77.74
79077;BME280;68477;42.698;23.342;2023-06-14T07:04:24;95224.84;;;18.43;78.11
79077;BME280;68477;42.698;23.342;2023-06-14T07:06:49;95228.78;;;18.41;78.18
79077;BME280;68477;42.698;23.342;2023-06-14T07:09:15;95218.84;;;18.29;79.14
79077;BME280;68477;42.698;23.342;2023-06-14T07:11:42;95222.72;;;18.52;77.96
79077;BME280;68477;42.698;23.342;2023-06-14T07:14:07;95225.47;;;18.82;77.30
79077;BME280;68477;42.698;23.342;2023-06-14T07:16:33;95212.09;;;19.00;77.12
79077;BME280;68477;42.698;23.342;2023-06-14T07:18:59;95218.97;;;19.08;76.55
79077;BME280;68477;42.698;23.342;2023-06-14T07:21:25;95219.78;;;19.08;76.89
79077;BME280;68477;42.698;23.342;2023-06-14T07:23:52;95217.06;;;19.15;75.57
79077;BME280;68477;42.698;23.342;2023-06-14T07:26:19;95212.06;;;19.18;75.71
79077;BME280;68477;42.698;23.342;2023-06-14T07:28:46;95211.06;;;19.31;75.72
79077;BME280;68477;42.698;23.342;2023-06-14T07:31:12;95207.81;;;19.29;74.29
79077;BME280;68477;42.698;23.342;2023-06-14T07:33:38;95211.34;;;19.53;74.44
79077;BME280;68477;42.698;23.342;2023-06-14T07:36:03;95212.97;;;20.08;72.08
79077;BME280;68477;42.698;23.342;2023-06-14T07:38:29;95209.81;;;19.87;72.78
79077;BME280;68477;42.698;23.342;2023-06-14T07:40:54;95214.59;;;19.97;71.17
79077;BME280;68477;42.698;23.342;2023-06-14T07:43:20;95205.19;;;20.29;71.24
79077;BME280;68477;42.698;23.342;2023-06-14T07:45:45;95210.28;;;20.31;70.29
79077;BME280;68477;42.698;23.342;2023-06-14T07:48:11;95206.22;;;20.28;69.74
79077;BME280;68477;42.698;23.342;2023-06-14T07:50:36;95213.06;;;20.36;70.27
79077;BME280;68477;42.698;23.342;2023-06-14T07:53:02;95214.81;;;20.54;70.35
79077;BME280;68477;42.698;23.342;2023-06-14T07:55:27;95220.97;;;20.54;69.57
79077;BME280;68477;42.698;23.342;2023-06-14T07:57:53;95219.81;;;20.50;69.91
79077;BME280;68477;42.698;23.342;2023-06-14T08:00:20;95220.72;;;20.56;69.27
79077;BME280;68477;42.698;23.342;2023-06-14T08:02:46;95225.28;;;20.44;67.99
79077;BME280;68477;42.698;23.342;2023-06-14T08:05:11;95226.41;;;20.36;67.66
79077;BME280;68477;42.698;23.342;2023-06-14T08:07:38;95223.06;;;20.17;68.66
79077;BME280;68477;42.698;23.342;2023-06-14T08:10:05;95230.03;;;20.30;69.09
79077;BME280;68477;42.698;23.342;2023-06-14T08:12:32;95236.75;;;20.68;69.01
79077;BME280;68477;42.698;23.342;2023-06-14T08:14:57;95238.47;;;20.85;66.26
79077;BME280;68477;42.698;23.342;2023-06-14T08:17:23;95238.69;;;20.72;65.44
79077;BME280;68477;42.698;23.342;2023-06-14T08:19:48;95241.75;;;20.41;66.58
79077;BME280;68477;42.698;23.342;2023-06-14T08:22:13;95247.09;;;20.64;64.89
79077;BME280;68477;42.698;23.342;2023-06-14T08:24:39;95247.41;;;21.31;65.14
79077;BME280;68477;42.698;23.342;2023-06-14T08:27:06;95243.75;;;21.66;63.84
79077;BME280;68477;42.698;23.342;2023-06-14T08:29:32;95242.41;;;21.23;62.21
79077;BME280;68477;42.698;23.342;2023-06-14T08:31:57;95247.22;;;21.09;64.02
79077;BME280;68477;42.698;23.342;2023-06-14T08:34:23;95250.78;;;21.27;66.29
79077;BME280;68477;42.698;23.342;2023-06-14T08:36:50;95254.84;;;21.17;64.57
79077;BME280;68477;42.698;23.342;2023-06-14T08:39:15;95249.41;;;21.12;65.42
79077;BME280;68477;42.698;23.342;2023-06-14T08:41:43;95239.47;;;21.36;64.17
79077;BME280;68477;42.698;23.342;2023-06-14T08:44:11;95245.69;;;21.70;62.50
79077;BME280;68477;42.698;23.342;2023-06-14T08:46:37;95236.00;;;21.98;60.27
79077;BME280;68477;42.698;23.342;2023-06-14T08:49:04;95236.94;;;22.42;61.45
79077;BME280;68477;42.698;23.342;2023-06-14T08:51:32;95229.06;;;21.85;59.74
79077;BME280;68477;42.698;23.342;2023-06-14T08:54:02;95230.44;;;22.38;59.39
79077;BME280;68477;42.698;23.342;2023-06-14T08:56:30;95226.31;;;22.69;60.58
79077;BME280;68477;42.698;23.342;2023-06-14T08:58:59;95227.19;;;22.75;57.25
79077;BME280;68477;42.698;23.342;2023-06-14T09:01:36;95231.66;;;22.86;58.23
79077;BME280;68477;42.698;23.342;2023-06-14T09:04:02;95235.53;;;22.56;56.80
79077;BME280;68477;42.698;23.342;2023-06-14T09:06:28;95230.19;;;22.40;59.25
79077;BME280;68477;42.698;23.342;2023-06-14T09:08:55;95228.28;;;22.35;57.59
79077;BME280;68477;42.698;23.342;2023-06-14T09:11:22;95229.13;;;22.79;57.92
79077;BME280;68477;42.698;23.342;2023-06-14T09:13:48;95228.59;;;22.77;58.27
79077;BME280;68477;42.698;23.342;2023-06-14T09:16:19;95225.13;;;22.60;57.61
79077;BME280;68477;42.698;23.342;2023-06-14T09:18:46;95218.66;;;22.56;57.79
79077;BME280;68477;42.698;23.342;2023-06-14T09:21:14;95217.13;;;22.43;57.72
79077;BME280;68477;42.698;23.342;2023-06-14T09:23:41;95211.56;;;22.11;58.78
79077;BME280;68477;42.698;23.342;2023-06-14T09:26:12;95217.97;;;22.27;59.17
79077;BME280;68477;42.698;23.342;2023-06-14T09:28:43;95217.47;;;22.30;58.99
79077;BME280;68477;42.698;23.342;2023-06-14T09:31:11;95217.72;;;22.28;58.67
79077;BME280;68477;42.698;23.342;2023-06-14T09:33:36;95222.50;;;22.26;58.94
79077;BME280;68477;42.698;23.342;2023-06-14T09:36:03;95217.00;;;22.33;58.13
79077;BME280;68477;42.698;23.342;2023-06-14T09:38:29;95206.38;;;22.21;58.14
79077;BME280;68477;42.698;23.342;2023-06-14T09:40:57;95211.00;;;22.09;58.86
79077;BME280;68477;42.698;23.342;2023-06-14T09:43:23;95212.19;;;22.35;59.11
79077;BME280;68477;42.698;23.342;2023-06-14T09:45:48;95206.56;;;22.36;57.67
79077;BME280;68477;42.698;23.342;2023-06-14T09:48:15;95203.75;;;23.09;57.66
79077;BME280;68477;42.698;23.342;2023-06-14T09:50:45;95206.34;;;23.26;56.38
79077;BME280;68477;42.698;23.342;2023-06-14T09:53:13;95204.63;;;23.41;54.09
79077;BME280;68477;42.698;23.342;2023-06-14T09:55:40;95197.31;;;23.59;54.19
79077;BME280;68477;42.698;23.342;2023-06-14T09:58:07;95198.56;;;24.15;53.82
79077;BME280;68477;42.698;23.342;2023-06-14T10:00:34;95201.13;;;24.32;54.23
79077;BME280;68477;42.698;23.342;2023-06-14T10:03:05;95197.09;;;23.65;54.72
79077;BME280;68477;42.698;23.342;2023-06-14T10:05:32;95190.66;;;23.66;55.20
79077;BME280;68477;42.698;23.342;2023-06-14T10:08:04;95188.91;;;23.82;54.78
79077;BME280;68477;42.698;23.342;2023-06-14T10:10:30;95182.31;;;24.00;51.74
79077;BME280;68477;42.698;23.342;2023-06-14T10:12:56;95183.31;;;24.26;52.05
79077;BME280;68477;42.698;23.342;2023-06-14T10:15:32;95179.25;;;24.60;49.57
79077;BME280;68477;42.698;23.342;2023-06-14T10:18:49;95177.63;;;24.17;49.56
79077;BME280;68477;42.698;23.342;2023-06-14T10:24:05;95173.19;;;24.95;49.46
79077;BME280;68477;42.698;23.342;2023-06-14T10:26:30;95165.22;;;25.16;51.81
79077;BME280;68477;42.698;23.342;2023-06-14T10:29:01;95166.59;;;25.39;47.95
79077;BME280;68477;42.698;23.342;2023-06-14T10:34:07;95172.53;;;25.51;47.80
79077;BME280;68477;42.698;23.342;2023-06-14T10:36:33;95164.75;;;25.70;48.95
79077;BME280;68477;42.698;23.342;2023-06-14T10:39:18;95157.47;;;26.01;46.73
79077;BME280;68477;42.698;23.342;2023-06-14T10:41:53;95153.69;;;26.17;49.59
79077;BME280;68477;42.698;23.342;2023-06-14T10:46:49;95152.28;;;26.50;46.76
79077;BME280;68477;42.698;23.342;2023-06-14T10:49:18;95155.63;;;26.96;46.71
79077;BME280;68477;42.698;23.342;2023-06-14T10:51:50;95151.84;;;25.97;45.44
79077;BME280;68477;42.698;23.342;2023-06-14T10:54:17;95153.13;;;26.30;47.58
79077;BME280;68477;42.698;23.342;2023-06-14T10:56:53;95149.19;;;26.87;46.88
79077;BME280;68477;42.698;23.342;2023-06-14T10:59:20;95137.97;;;26.55;46.04
79077;BME280;68477;42.698;23.342;2023-06-14T11:05:05;95131.03;;;25.47;46.66
79077;BME280;68477;42.698;23.342;2023-06-14T11:10:10;95129.38;;;25.05;48.75
79077;BME280;68477;42.698;23.342;2023-06-14T11:12:46;95128.91;;;26.00;48.19
79077;BME280;68477;42.698;23.342;2023-06-14T11:15:13;95124.34;;;25.90;45.29
79077;BME280;68477;42.698;23.342;2023-06-14T11:17:38;95124.28;;;26.41;45.59
79077;BME280;68477;42.698;23.342;2023-06-14T11:20:13;95126.72;;;26.22;44.63
79077;BME280;68477;42.698;23.342;2023-06-14T11:22:42;95122.66;;;26.25;44.50
79077;BME280;68477;42.698;23.342;2023-06-14T11:25:14;95125.31;;;26.35;44.61
79077;BME280;68477;42.698;23.342;2023-06-14T11:27:43;95118.50;;;26.73;44.90
79077;BME280;68477;42.698;23.342;2023-06-14T11:30:09;95109.66;;;27.12;43.63
79077;BME280;68477;42.698;23.342;2023-06-14T11:32:36;95114.84;;;27.03;42.32
79077;BME280;68477;42.698;23.342;2023-06-14T11:35:02;95111.97;;;26.84;42.23
79077;BME280;68477;42.698;23.342;2023-06-14T11:37:30;95115.47;;;25.85;43.36
79077;BME280;68477;42.698;23.342;2023-06-14T11:40:02;95116.44;;;26.34;43.49
79077;BME280;68477;42.698;23.342;2023-06-14T11:42:30;95117.56;;;26.03;44.22
79077;BME280;68477;42.698;23.342;2023-06-14T11:44:55;95106.50;;;26.04;44.32
79077;BME280;68477;42.698;23.342;2023-06-14T11:47:21;95102.78;;;25.80;43.97
79077;BME280;68477;42.698;23.342;2023-06-14T11:49:47;95100.06;;;25.54;47.45
79077;BME280;68477;42.698;23.342;2023-06-14T11:52:13;95093.63;;;25.66;44.48
79077;BME280;68477;42.698;23.342;2023-06-14T11:54:39;95090.31;;;26.15;44.66
79077;BME280;68477;42.698;23.342;2023-06-14T11:57:09;95084.44;;;25.57;44.09
79077;BME280;68477;42.698;23.342;2023-06-14T11:59:39;95077.97;;;25.68;46.17
79077;BME280;68477;42.698;23.342;2023-06-14T12:02:06;95083.94;;;25.75;46.92
79077;BME280;68477;42.698;23.342;2023-06-14T12:04:31;95078.53;;;25.34;45.32
79077;BME280;68477;42.698;23.342;2023-06-14T12:06:57;95074.50;;;25.16;46.42
79077;BME280;68477;42.698;23.342;2023-06-14T12:09:23;95073.16;;;25.85;43.19
79077;BME280;68477;42.698;23.342;2023-06-14T12:11:51;95062.75;;;26.38;42.87
79077;BME280;68477;42.698;23.342;2023-06-14T12:14:28;95066.41;;;27.17;41.94
79077;BME280;68477;42.698;23.342;2023-06-14T12:17:06;95064.56;;;27.46;42.02
79077;BME280;68477;42.698;23.342;2023-06-14T12:19:32;95058.09;;;26.59;41.51
79077;BME280;68477;42.698;23.342;2023-06-14T12:22:03;95056.22;;;27.43;40.12
79077;BME280;68477;42.698;23.342;2023-06-14T12:24:30;95049.41;;;27.50;39.01
79077;BME280;68477;42.698;23.342;2023-06-14T12:26:57;95052.00;;;28.19;38.87
79077;BME280;68477;42.698;23.342;2023-06-14T12:29:25;95047.94;;;28.21;38.20
79077;BME280;68477;42.698;23.342;2023-06-14T12:31:50;95056.16;;;28.11;38.47
79077;BME280;68477;42.698;23.342;2023-06-14T12:34:16;95055.16;;;28.02;39.25
79077;BME280;68477;42.698;23.342;2023-06-14T12:36:41;95053.09;;;27.65;40.81
79077;BME280;68477;42.698;23.342;2023-06-14T12:39:10;95052.22;;;26.96;40.28
79077;BME280;68477;42.698;23.342;2023-06-14T12:41:35;95041.00;;;27.23;40.24
79077;BME280;68477;42.698;23.342;2023-06-14T12:44:02;95043.75;;;26.68;41.71
79077;BME280;68477;42.698;23.342;2023-06-14T12:46:30;95037.41;;;26.88;43.24
79077;BME280;68477;42.698;23.342;2023-06-14T12:48:56;95035.22;;;26.51;44.08
79077;BME280;68477;42.698;23.342;2023-06-14T12:51:22;95026.09;;;26.32;41.81
79077;BME280;68477;42.698;23.342;2023-06-14T12:53:47;95028.34;;;26.09;45.17
79077;BME280;68477;42.698;23.342;2023-06-14T12:56:14;95020.31;;;25.79;46.02
79077;BME280;68477;42.698;23.342;2023-06-14T12:58:41;95023.59;;;25.20;44.91
79077;BME280;68477;42.698;23.342;2023-06-14T13:01:06;95025.75;;;25.23;45.80
79077;BME280;68477;42.698;23.342;2023-06-14T13:03:32;95023.88;;;25.23;44.43
79077;BME280;68477;42.698;23.342;2023-06-14T13:05:58;95026.22;;;24.74;45.84
79077;BME280;68477;42.698;23.342;2023-06-14T13:08:24;95030.84;;;24.94;47.29
79077;BME280;68477;42.698;23.342;2023-06-14T13:10:50;95029.22;;;24.98;45.17